Time;durP1;ratioP1;P1;durP2;ratioP2;P2;SDS_P1;SDS_P2;PMS_P1;PMS_P2;Temp;Humidity;BMP_temperature;BMP_pressure;BME280_temperature;BME280_humidity;BME280_pressure;Samples;Min_cycle;Max_cycle;Signal;HPM_P1;HPM_P2
2023/07/30 00:01:45;;;;;;;;;;;;;;;18.13;76.03;100225.64;108139;1262;125846;-88
2023/07/30 00:04:13;;;;;;;;;;;;;;;18.08;76.20;100223.21;108373;1264;68588;-88
2023/07/30 00:06:40;;;;;;;;;;;;;;;18.07;76.35;100225.17;108360;1260;125312;-87
2023/07/30 00:09:07;;;;;;;;;;;;;;;18.04;76.34;100233.75;108504;1264;60240;-87
2023/07/30 00:11:42;;;;;;;;;;;;;;;17.99;76.33;100240.20;108496;1260;61108;-87
2023/07/30 00:14:09;;;;;;;;;;;;;;;17.96;76.50;100241.84;108369;1267;124659;-86
2023/07/30 00:16:36;;;;;;;;;;;;;;;17.95;76.66;100239.90;108439;1263;65551;-87
2023/07/30 00:19:03;;;;;;;;;;;;;;;17.94;76.74;100236.73;108274;1261;125054;-87
2023/07/30 00:21:30;;;;;;;;;;;;;;;17.92;76.82;100232.67;108434;1260;60857;-88
2023/07/30 00:23:59;;;;;;;;;;;;;;;17.89;76.88;100239.09;108409;1267;60200;-87
2023/07/30 00:26:26;;;;;;;;;;;;;;;17.88;77.00;100248.70;108207;1264;126116;-86
2023/07/30 00:28:55;;;;;;;;;;;;;;;17.88;77.32;100246.21;108407;1264;67079;-85
2023/07/30 00:31:22;;;;;;;;;;;;;;;17.90;77.33;100240.14;108349;1264;126152;-86
2023/07/30 00:33:50;;;;;;;;;;;;;;;17.94;77.47;100232.99;108430;1263;60046;-87
2023/07/30 00:36:17;;;;;;;;;;;;;;;17.98;77.47;100232.77;108417;1262;60226;-86
2023/07/30 00:38:44;;;;;;;;;;;;;;;17.99;77.44;100233.27;108332;1267;125159;-87
2023/07/30 00:41:11;;;;;;;;;;;;;;;17.98;77.33;100237.90;108451;1263;66366;-87
2023/07/30 00:43:38;;;;;;;;;;;;;;;17.95;77.28;100239.90;108234;1263;125114;-87
2023/07/30 00:46:08;;;;;;;;;;;;;;;17.92;77.31;100240.83;108472;1262;60006;-86
2023/07/30 00:48:35;;;;;;;;;;;;;;;17.89;77.27;100240.88;108377;1263;60391;-86
2023/07/30 00:51:07;;;;;;;;;;;;;;;17.87;77.34;100242.85;108280;1264;126138;-86
2023/07/30 00:53:36;;;;;;;;;;;;;;;17.86;77.50;100241.80;108125;1270;68389;-87
2023/07/30 00:56:03;;;;;;;;;;;;;;;17.90;77.53;100243.00;108159;1264;126454;-87
2023/07/30 00:58:30;;;;;;;;;;;;;;;17.93;77.58;100239.75;108171;1263;60505;-87
2023/07/30 01:01:00;;;;;;;;;;;;;;;17.92;77.46;100235.33;108279;1263;126090;-87
2023/07/30 01:03:27;;;;;;;;;;;;;;;17.89;77.27;100235.38;108415;1264;74171;-87
2023/07/30 01:05:54;;;;;;;;;;;;;;;17.82;77.15;100240.75;108525;1264;65838;-87
2023/07/30 01:08:21;;;;;;;;;;;;;;;17.76;77.16;100241.00;108340;1263;126887;-87
2023/07/30 01:10:48;;;;;;;;;;;;;;;17.70;77.22;100243.56;108493;1263;60002;-87
2023/07/30 01:13:17;;;;;;;;;;;;;;;17.64;77.26;100246.47;108372;1275;125473;-87
2023/07/30 01:15:44;;;;;;;;;;;;;;;17.59;77.31;100250.61;108366;1263;76097;-87
2023/07/30 01:18:11;;;;;;;;;;;;;;;17.54;77.38;100245.54;108342;1269;67082;-87
2023/07/30 01:20:38;;;;;;;;;;;;;;;17.48;77.43;100245.95;108265;1279;125508;-87
2023/07/30 01:23:06;;;;;;;;;;;;;;;17.44;77.55;100249.19;108594;1263;60131;-86
2023/07/30 01:25:33;;;;;;;;;;;;;;;17.41;77.68;100255.97;108640;1261;125316;-86
2023/07/30 01:28:01;;;;;;;;;;;;;;;17.39;77.77;100263.08;108456;1260;75501;-87
2023/07/30 01:30:32;;;;;;;;;;;;;;;17.35;77.72;100261.35;108344;1277;68916;-87
2023/07/30 01:32:59;;;;;;;;;;;;;;;17.31;77.77;100261.05;108245;1261;125400;-87
2023/07/30 01:35:27;;;;;;;;;;;;;;;17.26;77.81;100262.69;108441;1263;60313;-87
2023/07/30 01:37:54;;;;;;;;;;;;;;;17.22;77.85;100266.80;108323;1262;125247;-87
2023/07/30 01:40:23;;;;;;;;;;;;;;;17.17;77.91;100266.86;108399;1262;76391;-88
2023/07/30 01:42:50;;;;;;;;;;;;;;;17.13;77.96;100272.04;108360;1260;125931;-87
2023/07/30 01:45:17;;;;;;;;;;;;;;;17.07;77.94;100274.76;108371;1269;72643;-87
2023/07/30 01:47:44;;;;;;;;;;;;;;;17.03;77.96;100280.11;108424;1264;60160;-87
2023/07/30 01:50:11;;;;;;;;;;;;;;;16.99;78.03;100275.52;108413;1264;125274;-88
2023/07/30 01:52:38;;;;;;;;;;;;;;;16.96;78.20;100275.55;108437;1266;74261;-88
2023/07/30 01:55:06;;;;;;;;;;;;;;;16.93;78.20;100273.63;108305;1264;126776;-87
2023/07/30 01:57:33;;;;;;;;;;;;;;;16.88;78.22;100274.03;108512;1260;70362;-86
2023/07/30 02:00:05;;;;;;;;;;;;;;;16.84;78.33;100274.44;108556;1266;59850;-87
2023/07/30 02:02:35;;;;;;;;;;;;;;;16.82;78.44;100275.66;108469;1260;126740;-86
2023/07/30 02:05:02;;;;;;;;;;;;;;;16.79;78.50;100274.25;108468;1261;75047;-86
2023/07/30 02:07:29;;;;;;;;;;;;;;;16.75;78.37;100277.66;108190;1269;125500;-86
2023/07/30 02:09:56;;;;;;;;;;;;;;;16.70;78.44;100281.95;108441;1260;72531;-86
2023/07/30 02:12:26;;;;;;;;;;;;;;;16.66;78.51;100283.57;108263;1261;61646;-87
2023/07/30 02:14:56;;;;;;;;;;;;;;;16.60;78.40;100282.02;108557;1267;125827;-88
2023/07/30 02:17:23;;;;;;;;;;;;;;;16.55;78.49;100283.46;108891;1260;74102;-87
2023/07/30 02:19:50;;;;;;;;;;;;;;;16.50;78.54;100278.72;108735;1260;125306;-86
2023/07/30 02:22:19;;;;;;;;;;;;;;;16.46;78.68;100280.15;108558;1260;70255;-87
2023/07/30 02:24:46;;;;;;;;;;;;;;;16.42;78.82;100279.83;108403;1262;125549;-86
2023/07/30 02:27:17;;;;;;;;;;;;;;;16.39;78.84;100280.91;108368;1267;60946;-86
2023/07/30 02:29:49;;;;;;;;;;;;;;;16.37;78.81;100283.58;108301;1260;76755;-87
2023/07/30 02:32:21;;;;;;;;;;;;;;;16.34;78.92;100285.73;108395;1260;125446;-87
2023/07/30 02:34:48;;;;;;;;;;;;;;;16.31;79.05;100286.98;108455;1260;71148;-87
2023/07/30 02:37:15;;;;;;;;;;;;;;;16.28;79.08;100290.19;108418;1263;125829;-87
2023/07/30 02:39:42;;;;;;;;;;;;;;;16.26;79.21;100293.73;108422;1261;59964;-87
2023/07/30 02:42:11;;;;;;;;;;;;;;;16.24;79.32;100295.34;108362;1264;76625;-87
2023/07/30 02:44:39;;;;;;;;;;;;;;;16.24;79.40;100296.59;108225;1260;125833;-87
2023/07/30 02:47:06;;;;;;;;;;;;;;;16.21;79.40;100297.84;108448;1260;72473;-87
2023/07/30 02:49:34;;;;;;;;;;;;;;;16.19;79.51;100291.30;108198;1264;125967;-87
2023/07/30 02:52:04;;;;;;;;;;;;;;;16.18;79.53;100284.75;108490;1262;59897;-87
2023/07/30 02:54:33;;;;;;;;;;;;;;;16.17;79.55;100284.06;108458;1261;74166;-87
2023/07/30 02:57:00;;;;;;;;;;;;;;;16.15;79.60;100287.60;108313;1264;125825;-87
2023/07/30 02:59:27;;;;;;;;;;;;;;;16.13;79.61;100288.50;108449;1262;72688;-88
2023/07/30 03:01:54;;;;;;;;;;;;;;;16.11;79.64;100293.98;108333;1267;125543;-87
2023/07/30 03:04:21;;;;;;;;;;;;;;;16.11;79.62;100300.55;108574;1260;59623;-88
2023/07/30 03:06:48;;;;;;;;;;;;;;;16.08;79.71;100297.19;108340;1260;125365;-88
2023/07/30 03:09:15;;;;;;;;;;;;;;;16.08;79.89;100297.73;108374;1265;65786;-90
2023/07/30 03:11:42;;;;;;;;;;;;;;;16.09;79.79;100298.09;108419;1264;74394;-87
2023/07/30 03:14:12;;;;;;;;;;;;;;;16.09;79.77;100302.69;108259;1262;125506;-87
2023/07/30 03:16:39;;;;;;;;;;;;;;;16.08;79.92;100300.90;108372;1260;60250;-87
2023/07/30 03:19:06;;;;;;;;;;;;;;;16.08;79.85;100304.27;108274;1262;125295;-87
2023/07/30 03:21:35;;;;;;;;;;;;;;;16.08;79.96;100297.90;108349;1260;65629;-87
2023/07/30 03:24:02;;;;;;;;;;;;;;;16.09;79.89;100303.39;108560;1260;71944;-87
2023/07/30 03:26:31;;;;;;;;;;;;;;;16.10;79.97;100309.41;108439;1262;125647;-87
2023/07/30 03:28:59;;;;;;;;;;;;;;;16.13;80.04;100309.91;108442;1261;60230;-87
2023/07/30 03:31:28;;;;;;;;;;;;;;;16.17;80.07;100308.83;108290;1260;129710;-87
2023/07/30 03:33:55;;;;;;;;;;;;;;;16.21;80.15;100311.29;108523;1260;65652;-86
2023/07/30 03:36:22;;;;;;;;;;;;;;;16.27;80.39;100314.63;108193;1260;73791;-87
2023/07/30 03:38:49;;;;;;;;;;;;;;;16.37;80.42;100313.34;108237;1262;125844;-87
2023/07/30 03:41:16;;;;;;;;;;;;;;;16.52;80.68;100316.26;108326;1260;62446;-86
2023/07/30 03:43:48;;;;;;;;;;;;;;;16.76;81.20;100317.86;108271;1262;125930;-86
2023/07/30 03:46:17;;;;;;;;;;;;;;;17.44;82.86;100318.36;108580;1260;69330;-87
2023/07/30 03:48:44;;;;;;;;;;;;;;;18.58;83.38;100325.86;108631;1261;125863;-86
2023/07/30 03:51:11;;;;;;;;;;;;;;;19.79;82.28;100317.06;108517;1262;61112;-86
2023/07/30 03:53:38;;;;;;;;;;;;;;;20.83;80.39;100318.40;108437;1262;59969;-86
2023/07/30 03:56:05;;;;;;;;;;;;;;;21.73;78.64;100317.86;108377;1262;125349;-85
2023/07/30 03:58:32;;;;;;;;;;;;;;;22.60;76.86;100320.35;108456;1260;65859;-85
2023/07/30 04:00:59;;;;;;;;;;;;;;;23.58;74.94;100318.16;108211;1262;125267;-86
2023/07/30 04:03:26;;;;;;;;;;;;;;;24.24;73.61;100317.02;108469;1264;60411;-86
2023/07/30 04:05:54;;;;;;;;;;;;;;;25.05;72.19;100319.90;108438;1260;60336;-86
2023/07/30 04:08:21;;;;;;;;;;;;;;;25.85;70.51;100323.63;108333;1260;125222;-87
2023/07/30 04:10:48;;;;;;;;;;;;;;;26.59;69.08;100323.63;108340;1264;66030;-86
2023/07/30 04:13:15;;;;;;;;;;;;;;;27.22;66.85;100323.95;108252;1262;125435;-86
2023/07/30 04:15:42;;;;;;;;;;;;;;;27.20;64.65;100326.95;108273;1263;60236;-85
2023/07/30 04:18:09;;;;;;;;;;;;;;;27.12;63.53;100329.33;108447;1264;61393;-92
2023/07/30 04:20:36;;;;;;;;;;;;;;;26.94;62.96;100330.61;108523;1260;125419;-85
2023/07/30 04:23:03;;;;;;;;;;;;;;;26.46;61.58;100329.28;108518;1262;67281;-84
2023/07/30 04:25:30;;;;;;;;;;;;;;;25.58;61.33;100332.95;108422;1261;125022;-84
2023/07/30 04:27:59;;;;;;;;;;;;;;;24.85;61.70;100330.21;108365;1262;60314;-84
2023/07/30 04:30:26;;;;;;;;;;;;;;;24.21;61.93;100334.00;108422;1262;60374;-84
2023/07/30 04:32:54;;;;;;;;;;;;;;;23.78;62.98;100336.44;108325;1264;125206;-83
2023/07/30 04:35:20;;;;;;;;;;;;;;;23.65;62.98;100340.31;108535;1261;65954;-84
2023/07/30 04:37:47;;;;;;;;;;;;;;;23.85;64.09;100342.46;108274;1264;124727;-84
2023/07/30 04:40:14;;;;;;;;;;;;;;;24.44;64.08;100344.56;108352;1264;60141;-86
2023/07/30 04:42:41;;;;;;;;;;;;;;;24.94;63.67;100347.09;108336;1269;60469;-85
2023/07/30 04:45:09;;;;;;;;;;;;;;;25.06;62.62;100347.89;108385;1263;75655;-88
2023/07/30 04:47:36;;;;;;;;;;;;;;;25.58;63.63;100354.84;108340;1264;67472;-84
2023/07/30 04:50:03;;;;;;;;;;;;;;;26.62;62.92;100354.62;108282;1262;124795;-83
2023/07/30 04:52:30;;;;;;;;;;;;;;;26.85;60.74;100350.14;108252;1267;60728;-86
2023/07/30 04:55:00;;;;;;;;;;;;;;;26.99;61.14;100350.14;108200;1264;125273;-84
2023/07/30 05:03:33;;;;;;;;;;;;;;;31.84;56.98;100347.36;108501;1267;64026;-90
2023/07/30 05:06:10;;;;;;;;;;;;;;;31.90;53.72;100352.66;108496;1267;60196;-90
2023/07/30 05:08:58;;;;;;;;;;;;;;;30.67;52.56;100355.42;108417;1267;124926;-88
2023/07/30 05:24:50;;;;;;;;;;;;;;;25.49;55.65;100360.45;108561;1267;59869;-91
2023/07/30 05:38:28;;;;;;;;;;;;;;;24.80;58.79;100365.27;107750;1273;124951;-93
2023/07/30 05:44:17;;;;;;;;;;;;;;;24.60;58.05;100369.98;108439;1270;123554;-88
2023/07/30 05:50:08;;;;;;;;;;;;;;;24.38;59.01;100371.70;108526;1270;123869;-94
2023/07/30 05:52:44;;;;;;;;;;;;;;;24.41;59.12;100373.91;108550;1270;59906;-93
2023/07/30 05:55:32;;;;;;;;;;;;;;;24.41;59.00;100375.52;108437;1270;123949;-86
2023/07/30 05:57:59;;;;;;;;;;;;;;;24.34;59.20;100377.42;108461;1270;75759;-92
2023/07/30 06:01:00;;;;;;;;;;;;;;;24.28;59.31;100380.33;108319;1270;66778;-94
2023/07/30 06:03:31;;;;;;;;;;;;;;;24.11;59.57;100380.07;108270;1270;72196;-92
2023/07/30 06:06:08;;;;;;;;;;;;;;;23.96;59.69;100381.33;108413;1269;59972;-90
2023/07/30 06:08:40;;;;;;;;;;;;;;;23.84;59.73;100380.87;108178;1273;124420;-89
2023/07/30 06:11:09;;;;;;;;;;;;;;;23.82;60.19;100382.02;108495;1263;75361;-89
2023/07/30 06:17:05;;;;;;;;;;;;;;;23.81;60.46;100386.54;108956;1263;71142;-94
2023/07/30 06:19:52;;;;;;;;;;;;;;;23.75;60.54;100388.67;108757;1262;124730;-95
2023/07/30 06:22:29;;;;;;;;;;;;;;;23.69;60.56;100393.38;108761;1264;60162;-89
2023/07/30 06:24:58;;;;;;;;;;;;;;;23.62;60.92;100396.47;108801;1262;75461;-88
2023/07/30 06:31:23;;;;;;;;;;;;;;;23.83;61.29;100399.90;108951;1261;71352;-88
2023/07/30 06:34:21;;;;;;;;;;;;;;;24.02;61.58;100399.95;108949;1261;59778;-93
2023/07/30 06:36:49;;;;;;;;;;;;;;;24.29;61.39;100394.45;108934;1262;60043;-93
2023/07/30 06:39:35;;;;;;;;;;;;;;;24.35;60.92;100392.63;108696;1262;123520;-88
2023/07/30 06:42:02;;;;;;;;;;;;;;;24.29;60.70;100390.16;108877;1262;67104;-93
2023/07/30 06:57:57;;;;;;;;;;;;;;;24.36;61.06;100401.73;108803;1260;66148;-87
2023/07/30 07:00:43;;;;;;;;;;;;;;;24.54;60.54;100408.23;108883;1260;72600;-89
2023/07/30 07:16:48;;;;;;;;;;;;;;;24.58;59.27;100406.30;108819;1263;71120;-86
2023/07/30 07:19:29;;;;;;;;;;;;;;;24.49;59.52;100401.26;108679;1262;124556;-88
2023/07/30 07:25:18;;;;;;;;;;;;;;;24.87;59.09;100401.75;108811;1264;75713;-88
2023/07/30 07:27:58;;;;;;;;;;;;;;;24.83;58.54;100401.39;108874;1261;67100;-89
2023/07/30 07:37:20;;;;;;;;;;;;;;;24.61;58.16;100404.92;108939;1260;60070;-88
2023/07/30 07:40:09;;;;;;;;;;;;;;;24.76;58.26;100409.55;108969;1260;75512;-89
2023/07/30 08:06:49;;;;;;;;;;;;;;;24.49;57.22;100404.66;108973;1260;59877;-94
2023/07/30 08:09:31;;;;;;;;;;;;;;;24.50;57.00;100406.59;108713;1262;124572;-94
2023/07/30 08:12:00;;;;;;;;;;;;;;;24.43;57.03;100403.78;108881;1260;74854;-94
2023/07/30 08:14:40;;;;;;;;;;;;;;;24.51;57.28;100407.27;108692;1261;124644;-94
2023/07/30 08:17:08;;;;;;;;;;;;;;;24.68;57.32;100410.60;108831;1260;70858;-87
2023/07/30 08:26:30;;;;;;;;;;;;;;;25.03;56.29;100412.44;108846;1260;124890;-89
2023/07/30 08:29:00;;;;;;;;;;;;;;;25.08;55.97;100412.78;108938;1261;68105;-92
2023/07/30 08:31:29;;;;;;;;;;;;;;;25.08;55.71;100413.88;108833;1260;124653;-95
2023/07/30 08:37:34;;;;;;;;;;;;;;;25.00;55.18;100412.37;109074;1261;59633;-94
2023/07/30 08:40:10;;;;;;;;;;;;;;;24.96;54.83;100413.96;108821;1261;75266;-93
2023/07/30 08:42:43;;;;;;;;;;;;;;;24.97;54.90;100412.48;108850;1260;67085;-88
2023/07/30 08:45:39;;;;;;;;;;;;;;;25.13;55.15;100417.96;108805;1261;124511;-94
2023/07/30 08:48:26;;;;;;;;;;;;;;;25.34;55.11;100423.05;108906;1260;59803;-86
2023/07/30 08:51:29;;;;;;;;;;;;;;;25.58;54.68;100425.98;108834;1260;124629;-88
2023/07/30 08:57:46;;;;;;;;;;;;;;;26.01;53.86;100431.58;108667;1262;124632;-88
2023/07/30 09:07:30;;;;;;;;;;;;;;;26.24;53.03;100426.77;108851;1262;60273;-88
2023/07/30 09:10:16;;;;;;;;;;;;;;;26.27;52.74;100426.78;108666;1262;75590;-88
2023/07/30 09:13:05;;;;;;;;;;;;;;;26.36;52.66;100424.77;108816;1262;67191;-90
2023/07/30 09:15:44;;;;;;;;;;;;;;;26.51;52.53;100427.10;108634;1262;124713;-89
2023/07/30 09:18:31;;;;;;;;;;;;;;;26.61;52.05;100431.36;108765;1264;59787;-94
2023/07/30 09:21:10;;;;;;;;;;;;;;;26.61;51.71;100430.48;108728;1262;123379;-93
2023/07/30 09:30:30;;;;;;;;;;;;;;;26.18;51.15;100420.92;108734;1264;71104;-89
2023/07/30 09:33:18;;;;;;;;;;;;;;;26.06;51.30;100419.82;108608;1262;124820;-90
2023/07/30 09:39:52;;;;;;;;;;;;;;;25.87;51.55;100420.42;108834;1260;124494;-89
2023/07/30 09:42:20;;;;;;;;;;;;;;;25.86;51.80;100418.15;108868;1261;65690;-86
2023/07/30 09:44:49;;;;;;;;;;;;;;;25.89;52.00;100420.90;108668;1260;123385;-88
2023/07/30 09:47:56;;;;;;;;;;;;;;;25.96;52.03;100419.88;108731;1264;60149;-86
2023/07/30 09:50:41;;;;;;;;;;;;;;;26.08;51.76;100417.60;108764;1262;124702;-87
2023/07/30 09:57:06;;;;;;;;;;;;;;;26.53;51.18;100420.18;108898;1260;124474;-92
2023/07/30 10:07:09;;;;;;;;;;;;;;;27.16;50.07;100414.33;108660;1267;60136;-88
2023/07/30 10:12:57;;;;;;;;;;;;;;;27.26;49.56;100411.70;108541;1267;67167;-88
2023/07/30 10:15:24;;;;;;;;;;;;;;;27.16;49.44;100409.48;108357;1267;124714;-87
2023/07/30 10:21:42;;;;;;;;;;;;;;;26.98;49.37;100407.98;108313;1270;123922;-87
2023/07/30 10:24:41;;;;;;;;;;;;;;;27.01;49.44;100406.05;108124;1273;74244;-89
2023/07/30 10:27:12;;;;;;;;;;;;;;;26.98;49.03;100404.59;108089;1271;66896;-87
2023/07/30 10:29:55;;;;;;;;;;;;;;;;;;;;;
2023/07/30 10:32:54;;;;;;;;;;;;;;;26.96;48.94;100413.70;108145;1273;123534;-92
2023/07/30 10:35:54;;;;;;;;;;;;;;;26.98;49.03;100413.26;108030;1268;59821;-89
2023/07/30 10:38:54;;;;;;;;;;;;;;;27.07;49.23;100416.92;108598;1262;124717;-90
2023/07/30 10:41:59;;;;;;;;;;;;;;;27.35;48.82;100412.70;108764;1262;67126;-85
2023/07/30 10:44:33;;;;;;;;;;;;;;;27.64;48.55;100416.45;108770;1260;124483;-90
2023/07/30 10:47:02;;;;;;;;;;;;;;;27.84;48.19;100414.89;108841;1260;59818;-89
2023/07/30 10:49:46;;;;;;;;;;;;;;;28.03;47.87;100415.73;108871;1261;59796;-94
2023/07/30 10:52:16;;;;;;;;;;;;;;;28.25;47.52;100418.16;108595;1262;75893;-90
2023/07/30 10:54:45;;;;;;;;;;;;;;;28.41;47.29;100415.32;108904;1260;59822;-88
2023/07/30 10:57:42;;;;;;;;;;;;;;;28.50;46.96;100415.19;108788;1260;124610;-87
2023/07/30 11:00:10;;;;;;;;;;;;;;;28.50;46.69;100416.44;108791;1262;60086;-89
2023/07/30 11:02:39;;;;;;;;;;;;;;;28.48;46.37;100423.05;108650;1260;124475;-89
2023/07/30 11:05:30;;;;;;;;;;;;;;;28.52;46.38;100422.14;108796;1261;69186;-89
2023/07/30 11:08:03;;;;;;;;;;;;;;;28.60;46.20;100426.78;108627;1262;124757;-86
2023/07/30 11:10:46;;;;;;;;;;;;;;;28.61;46.02;100430.48;108747;1260;73535;-85
2023/07/30 11:13:20;;;;;;;;;;;;;;;28.60;46.00;100432.20;108927;1260;59910;-92
2023/07/30 11:16:07;;;;;;;;;;;;;;;28.62;45.82;100434.59;108759;1260;124501;-91
2023/07/30 11:21:33;;;;;;;;;;;;;;;28.98;45.37;100440.13;108895;1259;123984;-89
2023/07/30 11:24:24;;;;;;;;;;;;;;;29.14;44.70;100434.56;108778;1262;62863;-87
2023/07/30 11:27:12;;;;;;;;;;;;;;;29.31;44.22;100436.68;108761;1260;124586;-91
2023/07/30 11:29:39;;;;;;;;;;;;;;;29.29;43.81;100436.61;108819;1260;59773;-89
2023/07/30 11:32:07;;;;;;;;;;;;;;;29.25;43.75;100433.20;108724;1262;125152;-92
2023/07/30 11:34:38;;;;;;;;;;;;;;;29.18;43.62;100429.86;108730;1260;59963;-91
2023/07/30 11:37:05;;;;;;;;;;;;;;;28.90;43.53;100431.91;108802;1260;64112;-91
2023/07/30 11:39:33;;;;;;;;;;;;;;;28.70;43.90;100432.54;108756;1261;125023;-85
2023/07/30 11:42:00;;;;;;;;;;;;;;;28.47;44.11;100424.17;108896;1260;60012;-90
2023/07/30 11:44:40;;;;;;;;;;;;;;;28.31;44.40;100426.13;108557;1259;125788;-91
2023/07/30 11:47:09;;;;;;;;;;;;;;;28.24;44.68;100425.96;108917;1260;68510;-89
2023/07/30 11:49:54;;;;;;;;;;;;;;;28.20;44.38;100422.55;108963;1260;63310;-94
2023/07/30 11:52:21;;;;;;;;;;;;;;;28.12;44.23;100417.77;108938;1260;59808;-93
2023/07/30 11:55:05;;;;;;;;;;;;;;;28.06;44.08;100419.20;108918;1260;59883;-92
2023/07/30 11:57:44;;;;;;;;;;;;;;;28.00;44.21;100416.98;108814;1261;123593;-88
2023/07/30 12:00:14;;;;;;;;;;;;;;;28.06;44.49;100415.17;108877;1260;67044;-87
2023/07/30 12:02:41;;;;;;;;;;;;;;;28.10;44.36;100411.90;108726;1262;123362;-88
2023/07/30 12:05:13;;;;;;;;;;;;;;;28.19;44.34;100411.27;108893;1260;59771;-89
2023/07/30 12:07:42;;;;;;;;;;;;;;;28.24;44.26;100414.96;108856;1260;59821;-87
2023/07/30 12:10:14;;;;;;;;;;;;;;;28.21;44.00;100412.98;108876;1260;125136;-89
2023/07/30 12:12:52;;;;;;;;;;;;;;;28.21;44.23;100413.13;108843;1260;67507;-88
2023/07/30 12:15:22;;;;;;;;;;;;;;;28.37;44.48;100409.55;108755;1260;124506;-92
2023/07/30 12:17:52;;;;;;;;;;;;;;;28.62;44.64;100409.87;108856;1260;59778;-89
2023/07/30 12:20:26;;;;;;;;;;;;;;;28.86;44.34;100420.79;108835;1260;124951;-89
2023/07/30 12:23:15;;;;;;;;;;;;;;;28.69;43.66;100425.72;108962;1260;76603;-88
2023/07/30 12:25:43;;;;;;;;;;;;;;;28.14;44.17;100423.08;108980;1260;66209;-89
2023/07/30 12:31:27;;;;;;;;;;;;;;;27.39;45.02;100425.66;108968;1260;59812;-92
2023/07/30 12:34:22;;;;;;;;;;;;;;;27.31;45.22;100425.12;108842;1260;124698;-95
2023/07/30 12:36:57;;;;;;;;;;;;;;;27.30;45.37;100421.92;108512;1262;78855;-84
2023/07/30 12:39:25;;;;;;;;;;;;;;;27.30;45.68;100420.67;108357;1265;123788;-86
2023/07/30 12:42:03;;;;;;;;;;;;;;;27.25;45.84;100420.21;108448;1262;75017;-86
2023/07/30 12:44:30;;;;;;;;;;;;;;;27.19;45.66;100422.48;108400;1268;124750;-86
2023/07/30 12:47:00;;;;;;;;;;;;;;;26.90;45.51;100422.98;108666;1260;60460;-86
2023/07/30 12:49:27;;;;;;;;;;;;;;;26.74;45.94;100433.27;108408;1269;76448;-86
2023/07/30 12:51:54;;;;;;;;;;;;;;;26.58;46.15;100435.10;108248;1260;124971;-85
2023/07/30 12:54:21;;;;;;;;;;;;;;;26.44;46.56;100428.20;108447;1260;73171;-86
2023/07/30 12:57:02;;;;;;;;;;;;;;;26.26;46.75;100429.89;108281;1260;124586;-86
2023/07/30 12:59:38;;;;;;;;;;;;;;;26.06;47.23;100426.45;108292;1264;61573;-87
2023/07/30 13:02:06;;;;;;;;;;;;;;;26.05;47.78;100418.44;106275;1261;2259581;-85
2023/07/30 13:04:34;;;;;;;;;;;;;;;26.12;47.78;100420.63;108387;1263;65860;-86
2023/07/30 13:07:02;;;;;;;;;;;;;;;26.23;47.95;100424.27;108448;1266;72511;-85
2023/07/30 13:09:29;;;;;;;;;;;;;;;26.35;47.75;100419.05;108390;1260;125535;-85
2023/07/30 13:11:56;;;;;;;;;;;;;;;26.48;47.84;100424.03;108459;1264;60349;-86
2023/07/30 13:14:24;;;;;;;;;;;;;;;26.52;47.73;100426.17;108299;1262;125025;-85
2023/07/30 13:16:51;;;;;;;;;;;;;;;26.46;48.10;100418.58;108364;1262;66721;-86
2023/07/30 13:19:18;;;;;;;;;;;;;;;26.51;48.38;100423.34;108555;1262;71367;-86
2023/07/30 13:21:46;;;;;;;;;;;;;;;26.52;48.22;100421.88;108509;1261;125196;-85
2023/07/30 13:24:14;;;;;;;;;;;;;;;26.53;48.52;100426.13;108507;1262;60252;-85
2023/07/30 13:26:40;;;;;;;;;;;;;;;26.65;48.49;100425.63;108503;1261;125239;-85
2023/07/30 13:29:08;;;;;;;;;;;;;;;26.75;48.54;100414.87;108495;1260;65730;-85
2023/07/30 13:31:35;;;;;;;;;;;;;;;26.83;48.29;100410.70;108507;1261;73694;-86
2023/07/30 13:34:02;;;;;;;;;;;;;;;26.94;47.99;100402.25;108223;1262;125151;-85
2023/07/30 13:36:29;;;;;;;;;;;;;;;26.98;47.99;100401.17;108543;1260;60857;-86
2023/07/30 13:38:56;;;;;;;;;;;;;;;27.03;47.80;100399.15;108490;1262;126333;-85
2023/07/30 13:41:23;;;;;;;;;;;;;;;27.13;47.71;100399.73;108547;1262;65573;-85
2023/07/30 13:43:51;;;;;;;;;;;;;;;27.18;47.68;100400.54;108336;1260;124540;-86
2023/07/30 13:46:19;;;;;;;;;;;;;;;27.22;47.63;100398.74;108406;1262;60129;-85
2023/07/30 13:48:46;;;;;;;;;;;;;;;27.34;47.57;100393.80;108334;1262;61455;-86
2023/07/30 13:51:14;;;;;;;;;;;;;;;27.55;47.52;100388.05;108395;1260;125021;-85
2023/07/30 13:53:41;;;;;;;;;;;;;;;27.75;47.68;100386.54;108569;1260;66683;-86
2023/07/30 13:56:09;;;;;;;;;;;;;;;27.87;47.49;100394.91;108515;1259;125757;-86
2023/07/30 13:58:36;;;;;;;;;;;;;;;27.88;47.37;100398.27;108675;1259;60222;-86
2023/07/30 14:01:03;;;;;;;;;;;;;;;27.84;47.05;100396.88;108573;1259;60458;-86
2023/07/30 14:03:33;;;;;;;;;;;;;;;27.79;47.47;100400.76;108269;1259;124621;-85
2023/07/30 14:06:03;;;;;;;;;;;;;;;27.76;47.92;100395.32;108526;1262;67195;-86
2023/07/30 14:08:39;;;;;;;;;;;;;;;27.79;48.13;100399.30;108308;1262;125233;-86
2023/07/30 14:11:07;;;;;;;;;;;;;;;27.80;48.07;100399.77;108403;1262;60160;-86
2023/07/30 14:13:37;;;;;;;;;;;;;;;27.60;48.08;100403.85;108520;1261;60012;-86
2023/07/30 14:16:04;;;;;;;;;;;;;;;27.34;48.45;100404.46;108347;1264;74821;-85
2023/07/30 14:18:31;;;;;;;;;;;;;;;27.13;48.79;100415.77;108472;1262;67087;-86
2023/07/30 14:20:59;;;;;;;;;;;;;;;26.53;49.25;100423.44;108628;1260;124621;-86
2023/07/30 14:23:26;;;;;;;;;;;;;;;26.00;50.18;100424.20;108560;1262;59996;-86
2023/07/30 14:25:56;;;;;;;;;;;;;;;25.58;50.76;100420.42;108206;1260;125338;-85
2023/07/30 14:28:26;;;;;;;;;;;;;;;25.31;51.53;100412.95;108375;1260;76852;-86
2023/07/30 14:30:53;;;;;;;;;;;;;;;25.11;51.93;100407.45;108561;1262;65789;-85
2023/07/30 14:33:23;;;;;;;;;;;;;;;24.98;52.55;100406.72;108465;1261;125140;-85
2023/07/30 14:35:53;;;;;;;;;;;;;;;24.85;52.70;100409.01;108473;1262;60476;-85
2023/07/30 14:38:21;;;;;;;;;;;;;;;24.68;53.03;100404.11;108453;1261;125055;-86
2023/07/30 14:40:51;;;;;;;;;;;;;;;24.52;53.18;100402.04;108565;1262;75556;-85
2023/07/30 14:43:19;;;;;;;;;;;;;;;24.35;53.77;100403.01;108784;1260;65987;-86
2023/07/30 14:45:46;;;;;;;;;;;;;;;24.27;54.10;100415.52;108713;1259;124339;-87
2023/07/30 14:48:18;;;;;;;;;;;;;;;24.11;54.71;100418.23;108588;1259;60489;-86
2023/07/30 14:51:09;;;;;;;;;;;;;;;23.95;54.94;100417.75;108525;1264;125045;-85
2023/07/30 14:53:46;;;;;;;;;;;;;;;;;;;;;
2023/07/30 14:56:14;;;;;;;;;;;;;;;23.62;55.71;100417.80;108627;1260;125126;-86
2023/07/30 14:58:48;;;;;;;;;;;;;;;23.66;56.23;100410.30;108547;1262;73803;-85
2023/07/30 15:01:15;;;;;;;;;;;;;;;23.73;56.26;100411.13;108633;1262;59851;-85
2023/07/30 15:03:43;;;;;;;;;;;;;;;23.64;56.38;100413.25;108617;1259;125097;-86
2023/07/30 15:06:12;;;;;;;;;;;;;;;23.47;56.87;100409.16;108631;1260;74518;-85
2023/07/30 15:08:40;;;;;;;;;;;;;;;23.31;57.03;100410.59;108615;1262;125067;-86
2023/07/30 15:11:11;;;;;;;;;;;;;;;23.22;57.50;100412.31;108754;1261;71394;-87
2023/07/30 15:13:41;;;;;;;;;;;;;;;23.18;57.79;100415.14;108626;1262;125058;-87
2023/07/30 15:16:22;;;;;;;;;;;;;;;23.06;58.16;100411.20;108341;1262;60902;-87
2023/07/30 15:18:54;;;;;;;;;;;;;;;22.89;58.38;100411.00;108417;1260;76227;-87
2023/07/30 15:21:22;;;;;;;;;;;;;;;22.81;58.62;100419.13;108367;1268;125763;-85
2023/07/30 15:24:10;;;;;;;;;;;;;;;;;;;;;
2023/07/30 15:26:37;;;;;;;;;;;;;;;22.50;59.01;100409.17;108391;1259;124034;-85
2023/07/30 15:29:04;;;;;;;;;;;;;;;22.36;59.27;100405.67;108433;1265;60253;-86
2023/07/30 15:31:32;;;;;;;;;;;;;;;22.24;59.59;100408.84;108528;1259;73946;-86